Time;durP1;ratioP1;P1;durP2;ratioP2;P2;SDS_P1;SDS_P2;PMS_P1;PMS_P2;Temp;Humidity;BMP_temperature;BMP_pressure;BME280_temperature;BME280_humidity;BME280_pressure;Samples;Min_cycle;Max_cycle;Signal;HPM_P1;HPM_P2
2024/04/17 00:00:06;;;;;;;;;3.00;2.00;;;;;;;;5423348;25;44291;-68
2024/04/17 00:02:32;;;;;;;;;2.33;0.00;;;;;;;;5449990;26;45171;-68
2024/04/17 00:04:57;;;;;;;;;0.00;0.00;;;;;;;;5459481;25;44018;-68
2024/04/17 00:07:35;;;;;;;;;2.00;0.33;;;;;;;;5450906;25;43857;-66
2024/04/17 00:10:00;;;;;;;;;3.00;1.67;;;;;;;;5420244;26;44042;-67
2024/04/17 00:12:25;;;;;;;;;2.00;2.00;;;;;;;;5456142;25;44371;-75
2024/04/17 00:14:50;;;;;;;;;0.00;0.00;;;;;;;;5424626;26;44018;-67
2024/04/17 00:17:16;;;;;;;;;0.67;0.67;;;;;;;;5471850;25;44362;-67
2024/04/17 00:19:41;;;;;;;;;0.67;0.00;;;;;;;;5470091;25;44307;-68
2024/04/17 00:22:06;;;;;;;;;3.00;1.33;;;;;;;;5438904;26;44769;-69
2024/04/17 00:24:32;;;;;;;;;0.00;0.00;;;;;;;;5429119;26;44878;-68
2024/04/17 00:26:57;;;;;;;;;1.67;1.67;;;;;;;;5472652;25;43867;-67
2024/04/17 00:29:22;;;;;;;;;0.00;0.00;;;;;;;;5464295;25;43862;-68
2024/04/17 00:31:50;;;;;;;;;1.00;0.67;;;;;;;;5478804;25;44033;-68
2024/04/17 00:34:15;;;;;;;;;1.00;1.00;;;;;;;;5442151;25;44034;-67
2024/04/17 00:36:41;;;;;;;;;1.33;1.00;;;;;;;;5478807;25;43952;-75
2024/04/17 00:39:06;;;;;;;;;0.00;0.00;;;;;;;;5440268;25;44451;-75
2024/04/17 00:41:34;;;;;;;;;2.00;0.33;;;;;;;;5460042;25;43979;-74
2024/04/17 00:43:59;;;;;;;;;2.00;0.00;;;;;;;;5478934;25;43871;-73
2024/04/17 00:46:24;;;;;;;;;0.00;0.00;;;;;;;;5473736;25;43834;-75
2024/04/17 00:48:50;;;;;;;;;1.00;1.00;;;;;;;;5471207;25;43863;-68
2024/04/17 00:51:15;;;;;;;;;1.00;1.00;;;;;;;;5469098;25;44392;-68
2024/04/17 00:53:40;;;;;;;;;2.33;1.67;;;;;;;;5436010;25;43990;-68
2024/04/17 00:56:06;;;;;;;;;0.00;0.00;;;;;;;;5464034;25;45148;-67
2024/04/17 00:58:31;;;;;;;;;0.00;0.00;;;;;;;;5471306;25;44455;-68
2024/04/17 01:00:56;;;;;;;;;3.00;1.00;;;;;;;;5474687;25;45570;-69
2024/04/17 01:03:22;;;;;;;;;0.00;0.00;;;;;;;;5447512;25;44481;-69
2024/04/17 01:05:47;;;;;;;;;3.00;1.33;;;;;;;;5460385;25;44418;-69
2024/04/17 01:08:13;;;;;;;;;1.00;1.00;;;;;;;;5453045;25;44383;-68
2024/04/17 01:10:38;;;;;;;;;2.00;1.00;;;;;;;;5455332;25;44495;-68
2024/04/17 01:13:03;;;;;;;;;2.00;1.00;;;;;;;;5414656;26;44195;-68
2024/04/17 01:15:29;;;;;;;;;3.67;3.67;;;;;;;;5456032;25;44027;-68
2024/04/17 01:17:55;;;;;;;;;2.00;2.00;;;;;;;;5459601;25;44556;-67
2024/04/17 01:20:21;;;;;;;;;3.33;2.00;;;;;;;;5447274;25;44610;-67
2024/04/17 01:22:46;;;;;;;;;3.00;2.00;;;;;;;;5456321;25;44445;-67
2024/04/17 01:25:12;;;;;;;;;2.67;2.00;;;;;;;;5463803;25;44353;-67
2024/04/17 01:27:39;;;;;;;;;0.67;0.67;;;;;;;;5449460;25;44631;-67
2024/04/17 01:30:05;;;;;;;;;1.00;1.00;;;;;;;;5454851;25;43958;-70
2024/04/17 01:32:30;;;;;;;;;1.00;1.00;;;;;;;;5471787;25;43952;-67
2024/04/17 01:34:56;;;;;;;;;1.00;1.00;;;;;;;;5462604;25;44390;-66
2024/04/17 01:37:21;;;;;;;;;3.00;2.00;;;;;;;;5459917;25;44800;-68
2024/04/17 01:39:46;;;;;;;;;1.00;1.00;;;;;;;;5466008;25;44810;-67
2024/04/17 01:42:11;;;;;;;;;1.00;0.00;;;;;;;;5455681;25;44217;-68
2024/04/17 01:44:37;;;;;;;;;3.33;1.00;;;;;;;;5456919;25;44387;-67
2024/04/17 01:47:02;;;;;;;;;1.00;1.00;;;;;;;;5461681;25;44763;-67
2024/04/17 01:49:27;;;;;;;;;1.00;1.00;;;;;;;;5450517;25;45684;-68
2024/04/17 01:51:53;;;;;;;;;5.00;5.00;;;;;;;;5456450;25;44444;-67
2024/04/17 01:54:18;;;;;;;;;5.33;4.00;;;;;;;;5457860;25;43989;-69
2024/04/17 01:56:43;;;;;;;;;10.33;10.00;;;;;;;;5446401;25;44268;-65
2024/04/17 01:59:09;;;;;;;;;5.33;4.33;;;;;;;;5457763;25;44325;-67
2024/04/17 02:01:34;;;;;;;;;9.00;4.33;;;;;;;;5422116;25;43920;-66
2024/04/17 02:04:00;;;;;;;;;11.00;11.00;;;;;;;;5417169;26;44077;-68
2024/04/17 02:06:25;;;;;;;;;8.67;7.00;;;;;;;;5447694;25;43953;-68
2024/04/17 02:08:50;;;;;;;;;4.00;4.00;;;;;;;;5457484;25;44720;-67
2024/04/17 02:11:15;;;;;;;;;2.00;2.00;;;;;;;;5462062;25;44199;-67
2024/04/17 02:13:41;;;;;;;;;4.00;2.00;;;;;;;;5457871;25;44252;-67
2024/04/17 02:16:09;;;;;;;;;4.00;2.00;;;;;;;;5463968;25;44089;-67
2024/04/17 02:18:34;;;;;;;;;2.00;2.00;;;;;;;;5438161;25;44407;-67
2024/04/17 02:21:00;;;;;;;;;2.00;2.00;;;;;;;;5419522;26;44009;-68
2024/04/17 02:23:28;;;;;;;;;3.33;1.33;;;;;;;;5446978;25;44436;-68
2024/04/17 02:25:54;;;;;;;;;2.33;2.33;;;;;;;;5448349;25;43969;-67
2024/04/17 02:28:19;;;;;;;;;2.00;2.00;;;;;;;;5423966;25;46916;-67
2024/04/17 02:30:45;;;;;;;;;10.00;6.33;;;;;;;;5419589;25;44286;-67
2024/04/17 02:33:10;;;;;;;;;6.33;4.67;;;;;;;;5458607;25;44314;-68
2024/04/17 02:35:35;;;;;;;;;5.00;4.00;;;;;;;;5453385;25;43882;-67
2024/04/17 02:38:00;;;;;;;;;3.00;3.00;;;;;;;;5420849;26;45993;-67
2024/04/17 02:40:26;;;;;;;;;5.00;5.00;;;;;;;;5448761;25;43943;-68
2024/04/17 02:42:51;;;;;;;;;13.00;13.00;;;;;;;;5461244;25;44241;-71
2024/04/17 02:45:16;;;;;;;;;5.00;5.00;;;;;;;;5459581;25;43982;-67
2024/04/17 02:47:41;;;;;;;;;9.00;6.67;;;;;;;;5455751;25;43988;-66
2024/04/17 02:50:07;;;;;;;;;5.00;2.00;;;;;;;;5461822;25;44498;-67
2024/04/17 02:52:32;;;;;;;;;6.67;6.00;;;;;;;;5455490;25;44501;-67
2024/04/17 02:54:58;;;;;;;;;4.00;3.00;;;;;;;;5462705;25;44361;-67
2024/04/17 02:57:24;;;;;;;;;3.00;3.00;;;;;;;;5404730;26;44698;-68
2024/04/17 02:59:50;;;;;;;;;3.00;3.00;;;;;;;;5456570;25;44311;-68
2024/04/17 03:02:15;;;;;;;;;7.67;5.00;;;;;;;;5452397;25;44061;-66
2024/04/17 03:04:40;;;;;;;;;6.33;3.67;;;;;;;;5457757;26;44042;-67
2024/04/17 03:07:05;;;;;;;;;4.00;4.00;;;;;;;;5456738;26;43784;-68
2024/04/17 03:09:31;;;;;;;;;5.67;4.33;;;;;;;;5424183;26;44343;-69
2024/04/17 03:11:56;;;;;;;;;5.67;4.00;;;;;;;;5456967;26;44354;-67
2024/04/17 03:14:21;;;;;;;;;2.00;2.00;;;;;;;;5457383;26;44008;-67
2024/04/17 03:16:47;;;;;;;;;8.00;4.00;;;;;;;;5455292;26;45104;-68
2024/04/17 03:19:12;;;;;;;;;4.33;2.67;;;;;;;;5457865;25;43910;-74
2024/04/17 03:21:37;;;;;;;;;5.00;4.00;;;;;;;;5458438;26;43923;-74
2024/04/17 03:24:02;;;;;;;;;2.33;2.00;;;;;;;;5457892;26;43862;-74
2024/04/17 03:26:27;;;;;;;;;7.00;4.00;;;;;;;;5457723;26;44217;-75
2024/04/17 03:28:53;;;;;;;;;8.33;6.33;;;;;;;;5449159;26;43871;-74
2024/04/17 03:31:18;;;;;;;;;4.00;4.00;;;;;;;;5445906;26;44002;-73
2024/04/17 03:33:45;;;;;;;;;4.00;4.00;;;;;;;;5451692;25;45323;-73
2024/04/17 03:36:10;;;;;;;;;8.67;6.00;;;;;;;;5457882;26;44359;-74
2024/04/17 03:38:36;;;;;;;;;2.00;1.00;;;;;;;;5457349;26;43978;-67
2024/04/17 03:41:01;;;;;;;;;1.33;1.00;;;;;;;;5456709;25;43912;-68
2024/04/17 03:43:26;;;;;;;;;2.33;1.33;;;;;;;;5451809;26;43957;-68
2024/04/17 03:45:51;;;;;;;;;4.00;3.00;;;;;;;;5424333;26;45714;-67
2024/04/17 03:48:17;;;;;;;;;3.33;3.33;;;;;;;;5456161;26;44383;-66
2024/04/17 03:50:42;;;;;;;;;7.33;7.33;;;;;;;;5447724;26;43961;-68
2024/04/17 03:53:07;;;;;;;;;2.33;2.33;;;;;;;;5454160;26;44451;-66
2024/04/17 03:55:33;;;;;;;;;2.33;1.00;;;;;;;;5449115;25;44652;-68
2024/04/17 03:57:58;;;;;;;;;1.67;1.67;;;;;;;;5447757;26;43934;-67
2024/04/17 04:00:23;;;;;;;;;0.67;0.67;;;;;;;;5455966;26;43919;-66
2024/04/17 04:02:48;;;;;;;;;1.33;1.33;;;;;;;;5453492;25;44131;-67
2024/04/17 04:05:14;;;;;;;;;2.00;2.00;;;;;;;;5436250;26;44018;-70
2024/04/17 04:07:39;;;;;;;;;5.00;5.00;;;;;;;;5457071;26;43822;-66
2024/04/17 04:10:05;;;;;;;;;5.33;5.33;;;;;;;;5455744;26;43826;-68
2024/04/17 04:12:30;;;;;;;;;3.33;2.33;;;;;;;;5457205;26;44173;-68
2024/04/17 04:14:56;;;;;;;;;2.00;1.00;;;;;;;;5423462;26;45074;-67
2024/04/17 04:17:21;;;;;;;;;4.67;2.67;;;;;;;;5427691;26;43901;-68
2024/04/17 04:19:46;;;;;;;;;2.00;2.00;;;;;;;;5456830;25;44326;-67
2024/04/17 04:22:12;;;;;;;;;1.00;1.00;;;;;;;;5456249;26;44392;-68
2024/04/17 04:24:37;;;;;;;;;1.67;1.67;;;;;;;;5456429;25;44357;-67
2024/04/17 04:27:02;;;;;;;;;1.00;1.00;;;;;;;;5456046;26;44403;-68
2024/04/17 04:29:27;;;;;;;;;1.33;1.33;;;;;;;;5455668;26;44296;-66
2024/04/17 04:31:53;;;;;;;;;1.00;1.00;;;;;;;;5456188;26;44459;-69
2024/04/17 04:34:18;;;;;;;;;5.33;4.33;;;;;;;;5456116;26;44297;-66
2024/04/17 04:36:43;;;;;;;;;4.67;4.00;;;;;;;;5457096;26;43921;-69
2024/04/17 04:39:08;;;;;;;;;2.00;2.00;;;;;;;;5455925;26;43918;-68
2024/04/17 04:41:34;;;;;;;;;4.00;4.00;;;;;;;;5444051;26;45119;-67
2024/04/17 04:43:59;;;;;;;;;3.00;3.00;;;;;;;;5455683;26;44833;-68
2024/04/17 04:46:24;;;;;;;;;3.00;3.00;;;;;;;;5450921;26;44440;-68
2024/04/17 04:48:50;;;;;;;;;3.33;3.33;;;;;;;;5445202;26;43930;-67
2024/04/17 04:51:15;;;;;;;;;6.00;6.00;;;;;;;;5456136;26;44362;-66
2024/04/17 04:53:40;;;;;;;;;6.00;1.67;;;;;;;;5451469;26;44922;-66
2024/04/17 04:56:05;;;;;;;;;3.00;2.00;;;;;;;;5386863;26;44333;-67
2024/04/17 04:58:31;;;;;;;;;5.00;3.67;;;;;;;;5454960;26;44071;-67
2024/04/17 05:00:57;;;;;;;;;3.33;2.00;;;;;;;;5453969;26;44022;-67
2024/04/17 05:03:22;;;;;;;;;3.00;3.00;;;;;;;;5453718;26;44039;-68
2024/04/17 05:05:47;;;;;;;;;2.00;2.00;;;;;;;;5454973;26;43917;-67
2024/04/17 05:08:13;;;;;;;;;3.00;3.00;;;;;;;;5454221;26;43969;-67
2024/04/17 05:10:38;;;;;;;;;4.00;3.00;;;;;;;;5422684;26;43967;-68
2024/04/17 05:13:03;;;;;;;;;4.00;4.00;;;;;;;;5450264;26;44626;-67
2024/04/17 05:15:29;;;;;;;;;1.00;1.00;;;;;;;;5448992;26;44381;-67
2024/04/17 05:17:54;;;;;;;;;3.67;3.33;;;;;;;;5453463;25;44386;-66
2024/04/17 05:20:19;;;;;;;;;2.33;1.00;;;;;;;;5451504;25;44383;-68
2024/04/17 05:22:44;;;;;;;;;4.00;4.00;;;;;;;;5435363;26;45797;-67
2024/04/17 05:25:38;;;;;;;;;2.00;2.00;;;;;;;;5455350;26;44393;-68
2024/04/17 05:28:03;;;;;;;;;5.00;2.33;;;;;;;;5452976;26;44152;-70
2024/04/17 05:30:29;;;;;;;;;10.00;8.00;;;;;;;;5452883;26;44663;-71
2024/04/17 05:32:54;;;;;;;;;4.00;4.00;;;;;;;;5442317;26;46640;-68
2024/04/17 05:35:22;;;;;;;;;7.33;5.00;;;;;;;;5452896;26;44188;-67
2024/04/17 05:37:48;;;;;;;;;2.00;2.00;;;;;;;;5450958;26;44467;-68
2024/04/17 05:40:13;;;;;;;;;4.00;3.67;;;;;;;;5452311;26;44113;-68
2024/04/17 05:42:38;;;;;;;;;3.00;2.00;;;;;;;;5452828;26;44899;-67
2024/04/17 05:45:03;;;;;;;;;2.00;2.00;;;;;;;;5453923;26;43846;-68
2024/04/17 05:47:29;;;;;;;;;3.00;3.00;;;;;;;;5452217;26;44095;-69
2024/04/17 05:49:54;;;;;;;;;3.33;2.00;;;;;;;;5457113;25;45820;-67
2024/04/17 05:52:20;;;;;;;;;4.00;3.00;;;;;;;;5419819;26;45706;-67
2024/04/17 05:54:45;;;;;;;;;7.33;3.67;;;;;;;;5437315;26;44460;-66
2024/04/17 05:57:10;;;;;;;;;5.00;5.00;;;;;;;;5444670;26;44288;-70
2024/04/17 05:59:36;;;;;;;;;6.33;4.00;;;;;;;;5449393;26;44043;-73
2024/04/17 06:02:01;;;;;;;;;5.67;5.67;;;;;;;;5431597;26;46075;-69
2024/04/17 06:04:27;;;;;;;;;3.00;3.00;;;;;;;;5430634;26;44130;-69
2024/04/17 06:06:52;;;;;;;;;5.00;5.00;;;;;;;;5440003;26;44302;-69
2024/04/17 06:09:17;;;;;;;;;4.00;4.00;;;;;;;;5440159;26;44536;-69
2024/04/17 06:11:42;;;;;;;;;4.33;4.33;;;;;;;;5418195;26;46823;-69
2024/04/17 06:14:08;;;;;;;;;4.00;4.00;;;;;;;;5435240;26;44142;-70
2024/04/17 06:16:33;;;;;;;;;7.00;6.00;;;;;;;;5434510;26;44292;-70
2024/04/17 06:18:58;;;;;;;;;9.33;8.33;;;;;;;;5440990;26;44565;-72
2024/04/17 06:21:23;;;;;;;;;4.00;4.00;;;;;;;;5438398;26;44942;-76
2024/04/17 06:23:49;;;;;;;;;6.67;4.67;;;;;;;;5433062;26;44468;-72
2024/04/17 06:26:14;;;;;;;;;5.33;5.00;;;;;;;;5443730;26;44420;-73
2024/04/17 06:28:39;;;;;;;;;4.00;3.33;;;;;;;;5404306;26;45063;-71
2024/04/17 06:31:05;;;;;;;;;3.33;3.33;;;;;;;;5444810;26;44049;-73
2024/04/17 06:33:30;;;;;;;;;4.67;3.00;;;;;;;;5439623;26;44286;-70
2024/04/17 06:35:55;;;;;;;;;2.00;2.00;;;;;;;;5441555;26;44078;-71
2024/04/17 06:38:21;;;;;;;;;2.67;1.00;;;;;;;;5440379;26;43968;-70
2024/04/17 06:40:46;;;;;;;;;2.00;2.00;;;;;;;;5433742;26;44702;-71
2024/04/17 06:43:11;;;;;;;;;2.67;2.67;;;;;;;;5437935;26;45607;-72
2024/04/17 06:45:36;;;;;;;;;3.00;3.00;;;;;;;;5440496;26;44171;-71
2024/04/17 06:48:03;;;;;;;;;4.00;4.00;;;;;;;;5431264;26;43912;-70
2024/04/17 06:50:28;;;;;;;;;4.00;2.00;;;;;;;;5446454;26;44784;-71
2024/04/17 06:52:53;;;;;;;;;5.67;4.33;;;;;;;;5435412;26;44178;-71
2024/04/17 06:55:19;;;;;;;;;1.67;1.67;;;;;;;;5413155;26;44374;-71
2024/04/17 06:57:44;;;;;;;;;2.33;2.33;;;;;;;;5403427;26;44159;-72
2024/04/17 07:00:10;;;;;;;;;2.00;1.00;;;;;;;;5434115;26;44290;-68
2024/04/17 07:02:35;;;;;;;;;1.33;1.33;;;;;;;;5403514;26;44195;-71
2024/04/17 07:05:00;;;;;;;;;2.33;1.67;;;;;;;;5443511;26;43938;-69
2024/04/17 07:07:25;;;;;;;;;1.00;1.00;;;;;;;;5451443;26;43949;-71
2024/04/17 07:09:51;;;;;;;;;0.33;0.33;;;;;;;;5451275;26;45126;-72
2024/04/17 07:12:16;;;;;;;;;2.33;1.67;;;;;;;;5421054;26;45100;-73
2024/04/17 07:14:42;;;;;;;;;0.00;0.00;;;;;;;;5421820;26;44006;-71
2024/04/17 07:17:07;;;;;;;;;3.00;0.00;;;;;;;;5440053;26;44340;-71
2024/04/17 07:19:32;;;;;;;;;1.00;1.00;;;;;;;;5440215;26;44623;-72
2024/04/17 07:21:57;;;;;;;;;0.00;0.00;;;;;;;;5415938;26;44084;-73
2024/04/17 07:24:25;;;;;;;;;2.00;0.00;;;;;;;;5450497;26;44536;-72
2024/04/17 07:26:54;;;;;;;;;1.00;0.00;;;;;;;;5450890;26;44622;-72
2024/04/17 07:29:19;;;;;;;;;1.00;0.00;;;;;;;;5422476;26;45759;-71
2024/04/17 07:31:44;;;;;;;;;0.00;0.00;;;;;;;;5450825;26;44381;-71
2024/04/17 07:34:09;;;;;;;;;1.25;0.25;;;;;;;;5386619;26;44410;-73
2024/04/17 07:36:35;;;;;;;;;0.25;0.25;;;;;;;;5469416;20;44024;-80
2024/04/17 07:39:00;;;;;;;;;0.00;0.00;;;;;;;;5397648;26;44033;-79
2024/04/17 07:41:25;;;;;;;;;2.25;0.50;;;;;;;;5432226;26;43790;-79
2024/04/17 07:43:50;;;;;;;;;0.25;0.00;;;;;;;;5434067;26;44327;-83
2024/04/17 07:46:16;;;;;;;;;0.25;0.25;;;;;;;;5404148;26;44587;-79
2024/04/17 07:48:41;;;;;;;;;0.00;0.00;;;;;;;;5406538;26;46187;-81
2024/04/17 07:51:06;;;;;;;;;0.00;0.00;;;;;;;;5418217;26;44454;-78
2024/04/17 07:53:32;;;;;;;;;0.00;0.00;;;;;;;;5387051;26;44269;-78
2024/04/17 07:55:58;;;;;;;;;0.00;0.00;;;;;;;;5416860;26;44261;-78
2024/04/17 07:58:24;;;;;;;;;0.00;0.00;;;;;;;;5401249;26;45778;-79
2024/04/17 08:00:49;;;;;;;;;0.00;0.00;;;;;;;;5405845;25;44021;-76
2024/04/17 08:03:14;;;;;;;;;1.00;1.00;;;;;;;;5422400;26;43926;-80
2024/04/17 08:05:41;;;;;;;;;0.00;0.00;;;;;;;;5429791;26;44229;-78
2024/04/17 08:08:06;;;;;;;;;0.00;0.00;;;;;;;;5399584;26;46880;-78
2024/04/17 08:10:32;;;;;;;;;1.00;1.00;;;;;;;;5387986;26;44183;-78
2024/04/17 08:13:07;;;;;;;;;8.00;7.33;;;;;;;;5386755;26;44392;-78
2024/04/17 08:15:33;;;;;;;;;2.00;2.00;;;;;;;;5385599;26;45091;-79
2024/04/17 08:18:01;;;;;;;;;7.33;5.00;;;;;;;;5405707;26;44088;-79
2024/04/17 08:20:26;;;;;;;;;6.67;6.67;;;;;;;;5434937;26;44322;-79
2024/04/17 08:22:51;;;;;;;;;10.67;8.00;;;;;;;;5401143;26;44537;-79
2024/04/17 08:25:16;;;;;;;;;5.67;3.00;;;;;;;;5453716;25;44416;-78
2024/04/17 08:27:42;;;;;;;;;0.00;0.00;;;;;;;;5402058;26;45204;-79
2024/04/17 08:30:07;;;;;;;;;0.00;0.00;;;;;;;;5394471;26;44374;-79
2024/04/17 08:32:33;;;;;;;;;2.00;1.00;;;;;;;;5399745;26;44359;-80
2024/04/17 08:34:58;;;;;;;;;4.33;4.33;;;;;;;;5454545;26;44142;-78
2024/04/17 08:37:24;;;;;;;;;1.33;1.33;;;;;;;;5423506;26;44886;-79
2024/04/17 08:39:49;;;;;;;;;1.33;0.00;;;;;;;;5419341;26;44377;-80
2024/04/17 08:42:21;;;;;;;;;1.00;1.00;;;;;;;;5457473;26;44414;-82
2024/04/17 08:44:46;;;;;;;;;0.00;0.00;;;;;;;;5425399;26;44036;-81
2024/04/17 08:47:13;;;;;;;;;0.00;0.00;;;;;;;;5452575;25;44799;-83
2024/04/17 08:49:38;;;;;;;;;1.00;0.00;;;;;;;;5458747;26;44312;-80
2024/04/17 08:52:05;;;;;;;;;0.00;0.00;;;;;;;;5428824;26;43901;-81
2024/04/17 08:54:31;;;;;;;;;0.00;0.00;;;;;;;;5422447;26;44970;-80
2024/04/17 08:56:56;;;;;;;;;0.00;0.00;;;;;;;;5454454;26;45007;-81
2024/04/17 08:59:21;;;;;;;;;0.00;0.00;;;;;;;;5434293;25;43920;-81
2024/04/17 09:01:49;;;;;;;;;0.00;0.00;;;;;;;;5461225;25;44097;-81
2024/04/17 09:04:15;;;;;;;;;0.25;0.25;;;;;;;;5423710;26;44075;-81
2024/04/17 09:06:41;;;;;;;;;0.75;0.25;;;;;;;;5474043;25;44334;-80
2024/04/17 09:09:09;;;;;;;;;2.00;0.00;;;;;;;;5451663;26;44507;-81
2024/04/17 09:11:35;;;;;;;;;0.25;0.25;;;;;;;;5448172;25;44062;-80
2024/04/17 09:14:01;;;;;;;;;2.00;0.00;;;;;;;;5456597;26;44045;-81
2024/04/17 09:16:26;;;;;;;;;0.00;0.00;;;;;;;;5422996;26;44513;-79
2024/04/17 09:18:51;;;;;;;;;1.00;1.00;;;;;;;;5442788;25;44449;-80
2024/04/17 09:21:17;;;;;;;;;1.25;1.00;;;;;;;;5426935;25;43911;-81
2024/04/17 09:23:42;;;;;;;;;0.25;0.25;;;;;;;;5430944;25;44587;-82
2024/04/17 09:26:15;;;;;;;;;1.25;0.25;;;;;;;;5436887;26;44983;-80
2024/04/17 09:28:40;;;;;;;;;0.00;0.00;;;;;;;;5426301;25;43927;-80
2024/04/17 09:31:06;;;;;;;;;0.00;0.00;;;;;;;;5424568;26;45493;-81
2024/04/17 09:33:31;;;;;;;;;0.00;0.00;;;;;;;;5432005;25;44636;-81
2024/04/17 09:36:03;;;;;;;;;1.00;0.00;;;;;;;;5425594;26;45678;-82
2024/04/17 09:38:28;;;;;;;;;0.80;0.80;;;;;;;;5423482;26;44479;-81
2024/04/17 09:40:55;;;;;;;;;1.00;1.00;;;;;;;;5429772;25;44093;-81
2024/04/17 09:43:25;;;;;;;;;1.25;1.00;;;;;;;;5418965;26;45717;-83
2024/04/17 09:45:56;;;;;;;;;1.75;1.00;;;;;;;;5416224;26;46591;-81
2024/04/17 09:48:23;;;;;;;;;1.75;1.75;;;;;;;;5413993;26;44475;-81
2024/04/17 09:50:49;;;;;;;;;2.00;1.00;;;;;;;;5421153;26;44661;-81
2024/04/17 09:53:15;;;;;;;;;1.25;1.25;;;;;;;;5433342;26;45258;-81
2024/04/17 09:55:41;;;;;;;;;3.50;3.50;;;;;;;;5417942;26;44687;-80
2024/04/17 09:58:09;;;;;;;;;0.75;0.75;;;;;;;;5444784;25;44462;-78
2024/04/17 10:00:47;;;;;;;;;1.50;1.50;;;;;;;;5464810;25;44554;-81
2024/04/17 10:03:14;;;;;;;;;0.75;0.75;;;;;;;;5449712;26;44090;-81
2024/04/17 10:05:41;;;;;;;;;2.00;2.00;;;;;;;;5432473;26;45500;-81
2024/04/17 10:08:08;;;;;;;;;0.75;0.00;;;;;;;;5451598;26;43950;-80
2024/04/17 10:10:39;;;;;;;;;0.25;0.25;;;;;;;;5458145;25;44240;-80
2024/04/17 10:13:06;;;;;;;;;0.75;0.75;;;;;;;;5423944;25;44383;-78
2024/04/17 10:15:31;;;;;;;;;2.00;0.00;;;;;;;;5466997;25;44044;-78
2024/04/17 10:17:57;;;;;;;;;1.00;0.75;;;;;;;;5470822;25;44031;-78
2024/04/17 10:20:29;;;;;;;;;1.00;1.00;;;;;;;;5434421;26;43912;-81
2024/04/17 10:23:07;;;;;;;;;0.25;0.25;;;;;;;;5423811;25;44384;-77
2024/04/17 10:25:48;;;;;;;;;0.00;0.00;;;;;;;;5422978;26;46825;-77
2024/04/17 10:28:14;;;;;;;;;2.00;0.00;;;;;;;;5454774;25;44185;-81
2024/04/17 10:31:01;;;;;;;;;0.00;0.00;;;;;;;;5453151;25;44185;-82
2024/04/17 10:33:31;;;;;;;;;0.00;0.00;;;;;;;;5469875;25;44276;-81
2024/04/17 10:36:01;;;;;;;;;1.00;0.00;;;;;;;;5429981;25;43870;-81
2024/04/17 10:38:27;;;;;;;;;0.00;0.00;;;;;;;;5467268;25;44046;-80
2024/04/17 10:41:10;;;;;;;;;0.00;0.00;;;;;;;;5455296;25;44160;-79
2024/04/17 10:43:36;;;;;;;;;0.25;0.00;;;;;;;;5448768;25;44289;-81
2024/04/17 10:46:06;;;;;;;;;0.00;0.00;;;;;;;;5407795;26;45754;-80
2024/04/17 10:48:41;;;;;;;;;1.00;1.00;;;;;;;;5405646;26;44133;-83
2024/04/17 10:51:07;;;;;;;;;3.50;2.25;;;;;;;;5405450;26;43984;-79
2024/04/17 10:53:32;;;;;;;;;0.50;0.50;;;;;;;;5433964;25;44452;-80
2024/04/17 10:55:58;;;;;;;;;0.00;0.00;;;;;;;;5448028;25;45306;-75
2024/04/17 10:58:24;;;;;;;;;0.00;0.00;;;;;;;;5461434;25;44483;-79
2024/04/17 11:00:50;;;;;;;;;1.50;0.25;;;;;;;;5426241;25;44561;-80
2024/04/17 11:03:15;;;;;;;;;1.00;1.00;;;;;;;;5425636;26;44815;-78
2024/04/17 11:05:40;;;;;;;;;0.33;0.33;;;;;;;;5424021;25;44807;-80
2024/04/17 11:08:08;;;;;;;;;3.00;1.67;;;;;;;;5423116;26;44024;-81
2024/04/17 11:10:35;;;;;;;;;1.00;1.00;;;;;;;;5401645;26;44454;-79
2024/04/17 11:13:00;;;;;;;;;0.00;0.00;;;;;;;;5423228;26;44478;-81
2024/04/17 11:15:25;;;;;;;;;0.00;0.00;;;;;;;;5461660;25;44169;-82
2024/04/17 11:17:51;;;;;;;;;0.50;0.50;;;;;;;;5449592;25;43935;-82
2024/04/17 11:20:16;;;;;;;;;2.67;1.00;;;;;;;;5455382;25;43810;-78
2024/04/17 11:22:43;;;;;;;;;1.33;1.33;;;;;;;;5465115;25;44375;-80
2024/04/17 11:25:13;;;;;;;;;1.00;0.33;;;;;;;;5455571;25;44076;-79
2024/04/17 11:27:38;;;;;;;;;0.00;0.00;;;;;;;;5425909;25;44424;-77
2024/04/17 11:30:14;;;;;;;;;0.00;0.00;;;;;;;;5451977;25;44159;-79
2024/04/17 11:32:40;;;;;;;;;1.00;1.00;;;;;;;;5415499;25;45456;-81
2024/04/17 11:35:14;;;;;;;;;1.00;1.00;;;;;;;;5440346;26;45423;-79
2024/04/17 11:37:40;;;;;;;;;1.00;0.67;;;;;;;;5404799;26;44602;-79
2024/04/17 11:40:08;;;;;;;;;0.67;0.67;;;;;;;;5444112;26;44216;-82
2024/04/17 11:42:36;;;;;;;;;1.00;1.00;;;;;;;;5407023;25;45512;-77
2024/04/17 11:45:01;;;;;;;;;0.00;0.00;;;;;;;;5412086;26;45487;-81
2024/04/17 11:47:27;;;;;;;;;1.00;1.00;;;;;;;;5410719;26;43825;-79
2024/04/17 11:49:52;;;;;;;;;0.00;0.00;;;;;;;;5463223;25;44262;-80
2024/04/17 11:52:18;;;;;;;;;0.00;0.00;;;;;;;;5420961;25;44739;-79
2024/04/17 11:54:43;;;;;;;;;0.00;0.00;;;;;;;;5407368;26;46742;-79
2024/04/17 11:57:09;;;;;;;;;0.00;0.00;;;;;;;;5460633;25;43862;-81
2024/04/17 11:59:34;;;;;;;;;0.33;0.33;;;;;;;;5462629;25;44322;-79
2024/04/17 12:02:02;;;;;;;;;0.00;0.00;;;;;;;;5464427;25;44397;-80
2024/04/17 12:04:29;;;;;;;;;0.00;0.00;;;;;;;;5469393;25;43986;-81
2024/04/17 12:06:55;;;;;;;;;0.00;0.00;;;;;;;;5457871;25;44339;-81
2024/04/17 12:09:20;;;;;;;;;0.00;0.00;;;;;;;;5457549;25;43880;-79
2024/04/17 12:11:45;;;;;;;;;2.00;2.00;;;;;;;;5456353;25;44319;-80
2024/04/17 12:14:11;;;;;;;;;0.00;0.00;;;;;;;;5452627;25;44957;-81
2024/04/17 12:16:36;;;;;;;;;1.33;0.00;;;;;;;;5456260;25;44287;-80
2024/04/17 12:19:01;;;;;;;;;0.00;0.00;;;;;;;;5454803;26;44077;-80
2024/04/17 12:21:27;;;;;;;;;1.00;1.00;;;;;;;;5469484;25;44499;-79
2024/04/17 12:23:55;;;;;;;;;1.00;0.00;;;;;;;;5454950;26;45491;-79
2024/04/17 12:29:04;;;;;;;;;0.00;0.00;;;;;;;;5448655;26;44705;-78
2024/04/17 12:31:30;;;;;;;;;1.00;0.00;;;;;;;;5429384;26;44485;-80
2024/04/17 12:33:55;;;;;;;;;0.00;0.00;;;;;;;;5439543;26;44449;-78
2024/04/17 12:36:20;;;;;;;;;0.00;0.00;;;;;;;;5476100;25;44387;-80
2024/04/17 12:38:46;;;;;;;;;0.00;0.00;;;;;;;;5425015;26;44448;-81
2024/04/17 12:41:11;;;;;;;;;1.00;0.00;;;;;;;;5477425;25;43982;-81
2024/04/17 12:43:37;;;;;;;;;2.67;1.33;;;;;;;;5444953;26;45206;-83
2024/04/17 12:46:06;;;;;;;;;0.00;0.00;;;;;;;;5413831;26;44429;-83
2024/04/17 12:48:32;;;;;;;;;0.00;0.00;;;;;;;;5417458;26;44515;-83
2024/04/17 12:51:01;;;;;;;;;0.00;0.00;;;;;;;;5465827;25;44377;-82
2024/04/17 12:53:29;;;;;;;;;1.00;1.00;;;;;;;;5424336;26;46717;-82
2024/04/17 12:55:54;;;;;;;;;3.00;2.00;;;;;;;;5478862;25;44021;-83
2024/04/17 12:58:21;;;;;;;;;1.00;1.00;;;;;;;;5477321;25;44008;-81
2024/04/17 13:00:47;;;;;;;;;0.00;0.00;;;;;;;;5429375;25;44370;-81
2024/04/17 13:03:13;;;;;;;;;4.00;3.00;;;;;;;;5479397;25;43902;-81
2024/04/17 13:05:38;;;;;;;;;2.00;2.00;;;;;;;;5443206;25;44477;-81
2024/04/17 13:08:03;;;;;;;;;2.33;1.67;;;;;;;;5470683;25;44284;-80
2024/04/17 13:10:29;;;;;;;;;0.00;0.00;;;;;;;;5413237;26;44491;-81
2024/04/17 13:12:54;;;;;;;;;3.00;2.00;;;;;;;;5423603;26;43958;-81
2024/04/17 13:15:22;;;;;;;;;1.00;1.00;;;;;;;;5390931;26;44369;-80
2024/04/17 13:17:48;;;;;;;;;5.00;3.00;;;;;;;;5407088;26;44187;-82
2024/04/17 13:20:38;;;;;;;;;;;;;;;;;;;;;
2024/04/17 13:23:04;;;;;;;;;2.33;2.33;;;;;;;;5394652;26;73189;-80
2024/04/17 13:25:32;;;;;;;;;5.00;1.00;;;;;;;;5392166;26;44191;-79
2024/04/17 13:27:57;;;;;;;;;0.67;0.67;;;;;;;;5400654;26;45410;-81
2024/04/17 13:30:23;;;;;;;;;0.33;0.33;;;;;;;;5426658;26;44559;-81
2024/04/17 13:32:48;;;;;;;;;3.33;3.00;;;;;;;;5418330;26;44762;-80
2024/04/17 13:35:13;;;;;;;;;3.67;2.67;;;;;;;;5408914;26;44053;-81
2024/04/17 13:37:39;;;;;;;;;2.33;2.33;;;;;;;;5403633;26;44416;-80
2024/04/17 13:40:04;;;;;;;;;0.33;0.33;;;;;;;;5412210;26;44171;-80
2024/04/17 13:42:30;;;;;;;;;0.67;0.67;;;;;;;;5415842;26;44315;-81
2024/04/17 13:44:56;;;;;;;;;1.33;1.33;;;;;;;;5393281;26;44498;-81
2024/04/17 13:47:31;;;;;;;;;5.00;2.00;;;;;;;;5436754;26;43954;-81
2024/04/17 13:50:00;;;;;;;;;0.67;0.67;;;;;;;;5389016;26;44380;-81
2024/04/17 13:52:26;;;;;;;;;1.67;1.67;;;;;;;;5339198;26;43949;-80
2024/04/17 13:54:54;;;;;;;;;0.00;0.00;;;;;;;;5421815;26;43994;-81
2024/04/17 13:57:19;;;;;;;;;1.33;0.00;;;;;;;;5418532;26;44395;-81
2024/04/17 14:00:11;;;;;;;;;1.00;0.00;;;;;;;;5413176;26;43908;-82
2024/04/17 14:03:11;;;;;;;;;0.00;0.00;;;;;;;;5452232;26;44689;-82
2024/04/17 14:06:01;;;;;;;;;0.00;0.00;;;;;;;;5419256;26;44401;-85
2024/04/17 14:08:27;;;;;;;;;0.00;0.00;;;;;;;;5410894;26;44114;-82
2024/04/17 14:11:25;;;;;;;;;0.00;0.00;;;;;;;;5394588;26;44461;-83
2024/04/17 14:14:39;;;;;;;;;0.00;0.00;;;;;;;;5343689;26;45804;-82
2024/04/17 14:33:07;;;;;;;;;27.33;23.67;;;;;;;;5204584;27;44014;-84
2024/04/17 14:38:50;;;;;;;;;1.67;1.67;;;;;;;;5307278;26;43994;-83
2024/04/17 14:41:32;;;;;;;;;1.00;1.00;;;;;;;;5339203;26;43827;-81
2024/04/17 14:44:41;;;;;;;;;1.00;1.00;;;;;;;;5349847;26;44365;-82
2024/04/17 14:47:33;;;;;;;;;1.67;0.00;;;;;;;;5353602;26;44381;-82
2024/04/17 15:24:48;;;;;;;;;;;;;;;;;;;;;
2024/04/17 15:27:23;;;;;;;;;3.33;2.67;;;;;;;;5075448;27;72901;-82
2024/04/17 15:29:48;;;;;;;;;3.67;2.67;;;;;;;;5189297;26;44382;-83
2024/04/17 15:32:50;;;;;;;;;1.67;0.00;;;;;;;;5315343;26;44509;-82
2024/04/17 15:35:08;;;;;;;;;4.33;3.33;;;;;;;;5340740;26;44767;-82
2024/04/17 15:37:34;;;;;;;;;4.67;1.00;;;;;;;;5325622;26;44403;-83
2024/04/17 15:39:59;;;;;;;;;1.33;1.33;;;;;;;;5295002;26;44476;-81